Startpagina
METAR-TAF:

METAR-TAF

Vliegvelden :

Beauvais, Frankrijk

Aéroport de Paris-Beauvais-Tillé

breedte: 49-28N, lengte: 002-07E, hoogte: 109 m

Actueel weer

Dit bericht is 13 minuten geleden gemaakt, om 19:00 UTC
Wind 6 kt uit het noordwesten
Temperatuur 10°C
Vochtigheid 82%
Druk 1019 hPa
Zicht 10 km of meer
geen wolken onder 1500 m en geen cumulonimbus

METAR: LFOB 231900Z AUTO 31006KT CAVOK 10/07 Q1019 NOSIG

Tijdstip: 21:13 (19:13 UTC)

Verwachting

Dit bericht is 2 uur en het 13 minuten geleden gemaakt, om 17:00 UTC
Verwachting geldig van 23 om 18 UTC tot 24 om 18 UTC
Wind 10 kt uit het westnoordwesten
Zicht 10 km of meer
Gebroken wolken op 3000 ft

TAF: LFOB 231700Z 2318/2418 29010KT 9999 BKN030

Waarnemingen en weersverwachtingen van meer dan 4000 vliegvelden (METAR en TAF).

De beschikbare stations zijn de gele en rode punten op de kaart.

Ga met uw muis naar het station om de naam te zien.

Klik dan om waarnemingen en weersverwachtingen te zien.

kaart wijzigen: klik op de groene knoppen met een zwart kruis om in te zoomen, op de groene knop met een streepje om uit te zoomen of op de groene pijlen voor aangrenzende kaarten.


METAR-TAF: